Аэропорт: Ровно. Ровно

ICAO: UKLR

METAR:
2019/03/26 13:00
UKLR 261300Z 28009MPS 9999 BKN032CB 06/M03 Q1014 NOSIG
METAR:
2019/01/25 06:18
TAF TAF UKLR 250512Z 2506/2615 09007G12MPS 9999 BKN010 
      TEMPO 2606/2615 12009G14MPS 2100 -SN BLSN BKN005